Time;durP1;ratioP1;P1;durP2;ratioP2;P2;SDS_P1;SDS_P2;PMS_P1;PMS_P2;Temp;Humidity;BMP_temperature;BMP_pressure;BME280_temperature;BME280_humidity;BME280_pressure;Samples;Min_cycle;Max_cycle;Signal;HPM_P1;HPM_P2
2023/04/12 00:00:10;;;;;;;2.95;1.35;;;24.40;44.20;;;;;;5042721;28;20078;-59
2023/04/12 00:02:36;;;;;;;3.10;1.52;;;24.40;44.10;;;;;;5044784;28;20041;-59
2023/04/12 00:05:03;;;;;;;2.67;1.42;;;24.40;44.10;;;;;;5041750;28;20029;-59
2023/04/12 00:07:29;;;;;;;3.42;1.70;;;24.40;44.10;;;;;;5045497;28;20568;-58
2023/04/12 00:09:58;;;;;;;3.60;1.40;;;24.40;44.00;;;;;;5042392;28;20099;-59
2023/04/12 00:12:26;;;;;;;2.30;1.20;;;24.40;44.50;;;;;;5045060;28;20033;-58
2023/04/12 00:14:51;;;;;;;3.78;1.42;;;24.40;44.00;;;;;;5044221;28;20429;-60
2023/04/12 00:17:18;;;;;;;2.55;1.30;;;24.40;44.00;;;;;;5039054;28;20043;-58
2023/04/12 00:19:44;;;;;;;2.63;1.27;;;24.40;44.00;;;;;;5040862;28;20053;-58
2023/04/12 00:22:10;;;;;;;3.72;1.45;;;24.40;43.90;;;;;;5041400;28;20104;-60
2023/04/12 00:24:40;;;;;;;2.33;1.20;;;24.40;43.90;;;;;;5036347;28;20031;-59
2023/04/12 00:27:06;;;;;;;2.13;1.20;;;24.40;43.90;;;;;;5040453;28;20052;-58
2023/04/12 00:29:33;;;;;;;2.40;1.10;;;24.30;43.90;;;;;;5039363;28;20060;-61
2023/04/12 00:32:00;;;;;;;1.75;1.17;;;24.30;43.90;;;;;;5042202;28;20460;-58
2023/04/12 00:34:29;;;;;;;2.50;1.30;;;24.30;43.90;;;;;;5040966;28;20033;-59
2023/04/12 00:36:55;;;;;;;2.00;1.10;;;24.30;44.40;;;;;;5039270;28;20041;-59
2023/04/12 00:39:21;;;;;;;1.90;1.05;;;24.30;43.90;;;;;;5042820;28;20087;-59
2023/04/12 00:41:47;;;;;;;3.13;1.50;;;24.30;44.00;;;;;;5041453;28;20086;-58
2023/04/12 00:44:13;;;;;;;2.53;1.20;;;24.30;44.00;;;;;;5038530;28;20063;-57
2023/04/12 00:46:39;;;;;;;3.22;1.30;;;24.20;43.90;;;;;;5042931;28;20032;-58
2023/04/12 00:49:05;;;;;;;2.33;1.20;;;24.20;43.90;;;;;;5041791;28;20341;-59
2023/04/12 00:51:32;;;;;;;2.45;1.23;;;24.20;43.90;;;;;;5040714;28;20029;-59
2023/04/12 00:54:00;;;;;;;2.42;1.13;;;24.20;43.90;;;;;;5037659;28;20517;-59
2023/04/12 00:56:27;;;;;;;2.47;1.20;;;24.10;43.90;;;;;;5038507;28;20110;-58
2023/04/12 00:58:54;;;;;;;2.15;1.20;;;24.10;43.90;;;;;;5041870;28;20884;-59
2023/04/12 01:01:20;;;;;;;2.20;1.15;;;24.10;43.90;;;;;;5040503;28;20040;-59
2023/04/12 01:03:47;;;;;;;2.40;1.20;;;24.10;43.90;;;;;;5036851;28;20067;-58
2023/04/12 01:06:43;;;;;;;2.50;1.40;;;24.00;43.90;;;;;;5042673;28;20063;-58
2023/04/12 01:09:22;;;;;;;4.10;1.25;;;24.00;43.90;;;;;;5039387;28;20105;-58
2023/04/12 01:12:20;;;;;;;3.30;1.30;;;24.00;43.90;;;;;;5042500;28;20079;-58
2023/04/12 01:15:10;;;;;;;1.95;1.10;;;24.00;43.90;;;;;;5040169;28;20045;-59
2023/04/12 01:18:14;;;;;;;2.83;1.30;;;23.90;43.80;;;;;;5040767;28;20477;-59
2023/04/12 01:20:43;;;;;;;2.47;1.08;;;23.90;43.90;;;;;;5038340;28;20144;-59
2023/04/12 01:23:27;;;;;;;;;;;23.90;43.90;;;;;;5038797;28;20033;-59
2023/04/12 01:26:12;;;;;;;2.10;1.13;;;23.90;43.90;;;;;;5043233;28;19905;-60
2023/04/12 01:28:42;;;;;;;2.35;1.10;;;23.90;43.90;;;;;;5040019;28;20943;-59
2023/04/12 01:31:09;;;;;;;1.80;1.00;;;23.90;44.00;;;;;;5041191;28;20338;-59
2023/04/12 01:33:38;;;;;;;2.97;1.40;;;23.80;43.90;;;;;;5039362;28;20017;-58
2023/04/12 01:36:10;;;;;;;1.80;1.10;;;23.80;43.90;;;;;;5039757;28;20049;-59
2023/04/12 01:38:37;;;;;;;1.77;1.10;;;23.80;44.00;;;;;;5041335;28;20037;-58
2023/04/12 01:41:03;;;;;;;2.08;1.15;;;23.80;44.00;;;;;;5038183;28;20029;-59
2023/04/12 01:43:29;;;;;;;2.65;1.10;;;23.70;43.90;;;;;;5038125;28;20047;-60
2023/04/12 01:45:54;;;;;;;2.03;0.90;;;23.80;44.00;;;;;;5040417;28;20108;-59
2023/04/12 01:48:20;;;;;;;2.17;1.20;;;23.70;44.00;;;;;;5042020;28;20021;-60
2023/04/12 01:51:04;;;;;;;2.25;1.10;;;23.70;44.00;;;;;;5041876;28;20032;-60
2023/04/12 01:53:54;;;;;;;1.90;0.93;;;23.70;44.00;;;;;;5040557;28;20037;-60
2023/04/12 01:56:21;;;;;;;1.83;0.90;;;23.70;44.00;;;;;;5042434;28;20450;-60
2023/04/12 01:58:49;;;;;;;2.38;1.20;;;23.70;44.00;;;;;;5038414;28;20032;-60
2023/04/12 02:01:17;;;;;;;2.72;1.10;;;23.60;44.00;;;;;;5040278;28;20029;-60
2023/04/12 02:03:45;;;;;;;1.95;1.05;;;23.60;44.00;;;;;;5039976;28;20029;-60
2023/04/12 02:06:11;;;;;;;2.40;1.10;;;23.60;44.50;;;;;;5038645;28;20473;-60
2023/04/12 02:08:37;;;;;;;1.73;0.98;;;23.60;44.00;;;;;;5038544;28;20045;-60
2023/04/12 02:11:09;;;;;;;2.13;1.08;;;23.60;44.00;;;;;;5042647;28;20029;-61
2023/04/12 02:13:35;;;;;;;1.42;0.90;;;23.60;44.00;;;;;;5039080;28;20037;-60
2023/04/12 02:16:01;;;;;;;1.80;1.08;;;23.50;44.00;;;;;;5041081;28;20397;-61
2023/04/12 02:18:27;;;;;;;2.15;1.20;;;23.50;44.00;;;;;;5044328;28;20025;-60
2023/04/12 02:20:53;;;;;;;1.85;1.00;;;23.50;44.00;;;;;;5039979;28;20025;-60
2023/04/12 02:23:19;;;;;;;1.70;1.00;;;23.50;44.00;;;;;;5040787;28;20025;-61
2023/04/12 02:25:45;;;;;;;1.65;0.93;;;23.50;44.00;;;;;;5039989;28;20029;-61
2023/04/12 02:28:12;;;;;;;1.77;1.00;;;23.50;44.50;;;;;;5036036;28;20052;-61
2023/04/12 02:30:40;;;;;;;1.85;0.98;;;23.50;44.10;;;;;;5037897;28;20048;-60
2023/04/12 02:33:08;;;;;;;1.60;0.90;;;23.50;44.10;;;;;;5038228;28;20067;-61
2023/04/12 02:35:35;;;;;;;1.98;1.00;;;23.50;44.10;;;;;;5040912;28;20531;-60
2023/04/12 02:38:02;;;;;;;1.77;0.90;;;23.40;44.00;;;;;;5039830;28;20385;-61
2023/04/12 02:40:28;;;;;;;1.50;0.90;;;23.40;44.00;;;;;;5037376;28;20026;-61
2023/04/12 02:42:54;;;;;;;1.85;1.00;;;23.40;44.10;;;;;;5041301;28;20480;-61
2023/04/12 02:45:20;;;;;;;1.50;0.90;;;23.40;44.00;;;;;;5040525;28;20028;-61
2023/04/12 02:47:45;;;;;;;1.90;1.00;;;23.40;44.10;;;;;;5037521;28;20501;-61
2023/04/12 02:50:11;;;;;;;2.08;1.10;;;23.40;44.10;;;;;;5038606;28;20025;-61
2023/04/12 02:52:36;;;;;;;1.48;0.90;;;23.40;44.10;;;;;;5039451;28;20021;-60
2023/04/12 02:55:03;;;;;;;1.40;0.75;;;23.40;44.10;;;;;;5041682;28;20029;-61
2023/04/12 02:57:28;;;;;;;1.50;1.10;;;23.30;44.00;;;;;;5039476;28;20473;-61
2023/04/12 02:59:54;;;;;;;1.65;0.98;;;23.30;44.10;;;;;;5038692;28;20025;-61
2023/04/12 03:02:20;;;;;;;1.88;1.10;;;23.30;44.10;;;;;;5037853;28;20103;-61
2023/04/12 03:04:49;;;;;;;2.38;1.10;;;23.30;44.10;;;;;;5040769;28;20036;-61
2023/04/12 03:07:19;;;;;;;1.45;0.98;;;23.30;44.10;;;;;;5037955;28;20022;-61
2023/04/12 03:09:46;;;;;;;2.47;1.15;;;23.20;44.60;;;;;;5038066;28;20500;-61
2023/04/12 03:12:13;;;;;;;1.45;0.90;;;23.30;44.20;;;;;;5038555;28;20030;-61
2023/04/12 03:14:39;;;;;;;1.80;0.90;;;23.20;44.10;;;;;;5037083;28;20057;-61
2023/04/12 03:17:04;;;;;;;1.25;0.90;;;23.20;44.20;;;;;;5036093;28;20551;-61
2023/04/12 03:19:31;;;;;;;1.85;0.90;;;23.20;44.10;;;;;;5036351;28;20469;-61
2023/04/12 03:21:58;;;;;;;1.38;0.80;;;23.20;44.10;;;;;;5038693;28;20033;-61
2023/04/12 03:24:24;;;;;;;1.83;0.95;;;23.20;44.10;;;;;;5039168;28;20033;-61
2023/04/12 03:26:51;;;;;;;1.95;1.05;;;23.20;44.10;;;;;;5037056;28;20025;-61
2023/04/12 03:29:17;;;;;;;1.55;0.93;;;23.20;44.10;;;;;;5037683;28;20033;-61
2023/04/12 03:31:42;;;;;;;1.23;0.80;;;23.20;44.10;;;;;;5039993;28;20029;-61
2023/04/12 03:34:08;;;;;;;1.58;0.93;;;23.20;44.20;;;;;;5039825;28;20025;-60
2023/04/12 03:36:34;;;;;;;1.13;0.90;;;23.20;44.20;;;;;;5036406;28;20029;-59
2023/04/12 03:38:59;;;;;;;1.50;0.90;;;23.10;44.10;;;;;;5040121;28;20473;-61
2023/04/12 03:41:27;;;;;;;1.60;1.00;;;23.10;44.10;;;;;;5039723;28;20043;-61
2023/04/12 03:43:53;;;;;;;1.10;0.80;;;23.10;44.10;;;;;;5037947;28;20441;-60
2023/04/12 03:46:19;;;;;;;1.38;0.90;;;23.10;44.10;;;;;;5036728;28;20075;-61
2023/04/12 03:48:44;;;;;;;1.70;1.00;;;23.10;44.20;;;;;;5037835;28;20470;-60
2023/04/12 03:51:11;;;;;;;1.40;0.90;;;23.10;44.20;;;;;;5040206;28;20018;-60
2023/04/12 03:53:40;;;;;;;1.60;0.88;;;23.10;44.20;;;;;;5038540;28;20030;-61
2023/04/12 03:56:06;;;;;;;0.75;0.70;;;23.10;44.20;;;;;;5040157;28;20041;-60
2023/04/12 03:58:35;;;;;;;1.65;0.90;;;23.00;44.20;;;;;;5039299;28;20036;-60
2023/04/12 04:01:04;;;;;;;0.70;0.60;;;23.00;44.20;;;;;;5036209;28;20465;-60
2023/04/12 04:03:33;;;;;;;0.93;0.75;;;23.00;44.20;;;;;;5037896;28;20128;-61
2023/04/12 04:06:00;;;;;;;1.50;0.70;;;23.00;44.20;;;;;;5039917;28;20053;-60
2023/04/12 04:08:27;;;;;;;1.30;0.90;;;23.00;44.20;;;;;;5039041;28;20037;-60
2023/04/12 04:10:53;;;;;;;1.23;0.75;;;23.00;44.20;;;;;;5037658;28;20033;-61
2023/04/12 04:13:18;;;;;;;1.80;0.90;;;23.00;44.20;;;;;;5037202;28;20100;-60
2023/04/12 04:15:44;;;;;;;1.48;0.90;;;23.00;44.20;;;;;;5035353;28;20060;-60
2023/04/12 04:18:09;;;;;;;1.80;0.90;;;23.00;44.20;;;;;;5038536;28;20026;-60
2023/04/12 04:20:35;;;;;;;1.02;0.80;;;23.00;44.20;;;;;;5040815;28;20021;-60
2023/04/12 04:23:01;;;;;;;1.60;1.00;;;23.00;44.20;;;;;;5037148;28;20543;-60
2023/04/12 04:25:28;;;;;;;1.25;0.80;;;23.00;44.20;;;;;;5037059;28;20021;-60
2023/04/12 04:27:55;;;;;;;1.48;1.00;;;23.00;44.30;;;;;;5037234;28;20057;-62
2023/04/12 04:30:22;;;;;;;1.55;0.90;;;23.00;44.20;;;;;;5037583;28;20051;-61
2023/04/12 04:32:48;;;;;;;1.15;0.80;;;23.00;44.30;;;;;;5038809;28;20028;-62
2023/04/12 04:35:14;;;;;;;0.98;0.77;;;22.90;44.20;;;;;;5038301;28;20485;-62
2023/04/12 04:37:40;;;;;;;1.63;0.95;;;23.00;44.30;;;;;;5042640;28;20090;-62
2023/04/12 04:40:16;;;;;;;1.55;0.80;;;22.90;44.20;;;;;;5044973;28;20029;-62
2023/04/12 04:42:42;;;;;;;0.98;0.70;;;22.90;44.30;;;;;;5039086;28;20029;-62
2023/04/12 04:45:12;;;;;;;1.10;0.73;;;22.90;44.30;;;;;;5037122;28;20029;-62
2023/04/12 04:47:38;;;;;;;1.13;0.80;;;22.90;44.30;;;;;;5041533;28;20477;-62
2023/04/12 04:50:05;;;;;;;1.50;0.80;;;22.90;44.20;;;;;;5041881;28;20385;-62
2023/04/12 04:52:31;;;;;;;1.13;0.80;;;22.90;44.30;;;;;;5043224;28;20021;-62
2023/04/12 04:54:56;;;;;;;0.98;0.80;;;22.90;44.30;;;;;;5042556;28;20025;-62
2023/04/12 04:57:23;;;;;;;1.17;0.80;;;22.90;44.30;;;;;;5041895;28;20098;-62
2023/04/12 04:59:49;;;;;;;1.30;0.80;;;22.90;44.30;;;;;;5040999;28;20127;-62
2023/04/12 05:02:15;;;;;;;1.10;0.77;;;22.90;44.30;;;;;;5040772;28;20036;-61
2023/04/12 05:04:41;;;;;;;1.08;0.70;;;22.90;44.30;;;;;;5044283;28;20033;-62
2023/04/12 05:07:06;;;;;;;0.80;0.68;;;22.90;44.30;;;;;;5039838;28;20082;-62
2023/04/12 05:09:32;;;;;;;1.00;0.68;;;22.90;44.30;;;;;;5041655;28;20026;-62
2023/04/12 05:11:57;;;;;;;0.70;0.70;;;22.90;44.30;;;;;;5040899;28;20106;-59
2023/04/12 05:14:23;;;;;;;1.33;0.80;;;22.80;44.30;;;;;;5038073;28;20029;-60
2023/04/12 05:16:49;;;;;;;0.90;0.70;;;22.90;44.30;;;;;;5041715;28;20130;-60
2023/04/12 05:19:14;;;;;;;1.05;0.75;;;22.80;44.30;;;;;;5042641;28;20385;-60
2023/04/12 05:21:40;;;;;;;0.63;0.60;;;22.80;44.30;;;;;;5041554;28;20029;-60
2023/04/12 05:24:06;;;;;;;0.95;0.70;;;22.80;44.30;;;;;;5039997;28;20044;-60
2023/04/12 05:26:33;;;;;;;2.35;0.98;;;22.80;44.30;;;;;;5042654;28;20032;-60
2023/04/12 05:29:00;;;;;;;1.50;0.80;;;22.80;44.30;;;;;;5040272;28;20123;-60
2023/04/12 05:31:26;;;;;;;1.48;0.82;;;22.80;44.30;;;;;;5039276;28;20465;-60
2023/04/12 05:33:53;;;;;;;1.35;0.80;;;22.80;44.30;;;;;;5046597;28;20508;-60
2023/04/12 05:36:19;;;;;;;1.38;0.88;;;22.70;44.20;;;;;;5039696;28;20426;-60
2023/04/12 05:38:45;;;;;;;1.15;0.70;;;22.80;44.30;;;;;;5038814;28;20053;-60
2023/04/12 05:41:11;;;;;;;0.90;0.68;;;22.70;44.30;;;;;;5041647;28;20377;-60
2023/04/12 05:43:36;;;;;;;1.25;0.80;;;22.70;44.30;;;;;;5043184;28;20034;-60
2023/04/12 05:46:03;;;;;;;1.20;0.70;;;22.70;44.30;;;;;;5041323;28;20025;-60
2023/04/12 05:48:29;;;;;;;1.20;0.70;;;22.70;44.30;;;;;;5039138;28;20482;-56
2023/04/12 05:50:55;;;;;;;1.30;0.75;;;22.70;44.30;;;;;;5039934;28;20079;-61
2023/04/12 05:53:21;;;;;;;1.17;0.80;;;22.70;44.30;;;;;;5039573;28;20079;-60
2023/04/12 05:55:46;;;;;;;1.75;0.90;;;22.70;44.30;;;;;;5038976;28;20033;-60
2023/04/12 05:58:12;;;;;;;1.15;0.60;;;22.70;44.30;;;;;;5042753;28;20033;-60
2023/04/12 06:00:41;;;;;;;0.77;0.63;;;22.70;44.30;;;;;;5038987;28;20493;-60
2023/04/12 06:03:09;;;;;;;1.42;0.73;;;22.70;44.80;;;;;;5053190;28;20029;-61
2023/04/12 06:05:34;;;;;;;1.00;0.70;;;22.70;44.40;;;;;;5039774;28;20112;-60
2023/04/12 06:08:00;;;;;;;0.80;0.70;;;22.70;44.30;;;;;;5038352;28;20105;-61
2023/04/12 06:10:26;;;;;;;0.98;0.77;;;22.70;44.40;;;;;;5042590;28;20053;-61
2023/04/12 06:12:52;;;;;;;1.05;0.75;;;22.70;44.40;;;;;;5045354;28;20515;-61
2023/04/12 06:15:19;;;;;;;1.15;0.73;;;22.70;44.90;;;;;;5039045;28;20566;-61
2023/04/12 06:17:45;;;;;;;0.90;0.60;;;22.70;44.40;;;;;;5041895;28;20481;-61
2023/04/12 06:20:11;;;;;;;1.02;0.70;;;22.70;44.40;;;;;;5042096;28;20107;-61
2023/04/12 06:22:37;;;;;;;0.90;0.77;;;22.70;44.40;;;;;;5041979;28;20380;-60
2023/04/12 06:25:04;;;;;;;1.05;0.70;;;22.70;44.40;;;;;;5041331;28;20029;-60
2023/04/12 06:27:30;;;;;;;0.88;0.68;;;22.60;44.30;;;;;;5040696;28;20040;-60
2023/04/12 06:29:56;;;;;;;1.35;0.80;;;22.60;44.30;;;;;;5041289;28;20045;-60
2023/04/12 06:32:22;;;;;;;0.82;0.68;;;22.60;44.40;;;;;;5037269;28;20074;-60
2023/04/12 06:34:47;;;;;;;0.80;0.70;;;22.60;44.30;;;;;;5037867;28;20037;-60
2023/04/12 06:37:13;;;;;;;0.93;0.70;;;22.60;44.30;;;;;;5043188;28;20345;-60
2023/04/12 06:39:38;;;;;;;0.98;0.70;;;22.60;44.30;;;;;;5042743;28;20037;-60
2023/04/12 06:42:04;;;;;;;0.80;0.77;;;22.60;44.30;;;;;;5036845;28;20552;-60
2023/04/12 06:44:32;;;;;;;1.08;0.70;;;22.60;44.30;;;;;;5037530;28;20477;-61
2023/04/12 06:46:57;;;;;;;1.05;0.80;;;22.60;44.30;;;;;;5037369;28;20017;-60
2023/04/12 06:49:23;;;;;;;1.23;0.77;;;22.60;44.30;;;;;;5040794;28;20036;-61
2023/04/12 06:51:48;;;;;;;0.85;0.70;;;22.60;44.30;;;;;;5039612;28;20026;-61
2023/04/12 06:54:14;;;;;;;1.15;0.80;;;22.60;44.30;;;;;;5035964;28;20033;-61
2023/04/12 06:56:40;;;;;;;1.45;0.85;;;22.60;44.30;;;;;;5041610;28;20033;-61
2023/04/12 06:59:05;;;;;;;1.10;0.80;;;22.50;44.20;;;;;;5039184;28;20033;-61
2023/04/12 07:01:31;;;;;;;1.30;0.80;;;22.60;44.30;;;;;;5035429;28;20037;-61
2023/04/12 07:03:56;;;;;;;0.98;0.80;;;22.50;44.30;;;;;;5038319;28;20033;-60
2023/04/12 07:06:22;;;;;;;0.75;0.65;;;22.60;44.30;;;;;;5040842;28;20040;-61
2023/04/12 07:08:48;;;;;;;0.82;0.70;;;22.50;44.30;;;;;;5037350;28;20052;-61
2023/04/12 07:11:14;;;;;;;1.33;0.80;;;22.50;44.30;;;;;;5036688;28;20037;-61
2023/04/12 07:13:40;;;;;;;1.05;0.70;;;22.50;44.30;;;;;;5038974;28;20025;-61
2023/04/12 07:16:06;;;;;;;1.25;0.60;;;22.50;44.30;;;;;;5036274;28;20523;-61
2023/04/12 07:18:31;;;;;;;0.70;0.70;;;22.50;44.30;;;;;;5038354;28;20033;-61
2023/04/12 07:20:57;;;;;;;0.73;0.60;;;22.50;44.30;;;;;;5039012;28;20024;-61
2023/04/12 07:23:24;;;;;;;1.30;0.80;;;22.50;44.30;;;;;;5039532;28;20126;-61
2023/04/12 07:25:50;;;;;;;1.10;0.70;;;22.50;44.40;;;;;;5038987;28;20040;-61
2023/04/12 07:28:17;;;;;;;0.82;0.65;;;22.50;44.40;;;;;;5040738;28;20041;-61
2023/04/12 07:30:43;;;;;;;0.60;0.60;;;22.50;44.40;;;;;;5038519;28;20025;-61
2023/04/12 07:33:08;;;;;;;1.05;0.80;;;22.50;44.40;;;;;;5034917;28;20537;-61
2023/04/12 07:35:34;;;;;;;1.60;0.90;;;22.50;44.40;;;;;;5036222;28;20072;-61
2023/04/12 07:38:00;;;;;;;1.05;0.75;;;22.50;44.40;;;;;;5040090;28;20394;-61
2023/04/12 07:40:26;;;;;;;0.88;0.68;;;22.50;44.40;;;;;;5037367;28;20108;-60
2023/04/12 07:42:51;;;;;;;0.90;0.70;;;22.40;44.40;;;;;;5039980;28;20033;-61
2023/04/12 07:45:19;;;;;;;0.80;0.70;;;22.50;44.50;;;;;;5035947;28;20438;-61
2023/04/12 07:47:45;;;;;;;0.80;0.60;;;22.40;44.40;;;;;;5039764;28;20106;-60
2023/04/12 07:50:10;;;;;;;0.68;0.68;;;22.40;44.50;;;;;;5040885;28;20061;-61
2023/04/12 07:52:36;;;;;;;0.88;0.70;;;22.40;44.50;;;;;;5040466;28;20110;-61
2023/04/12 07:55:02;;;;;;;0.85;0.70;;;22.40;44.50;;;;;;5039810;28;20033;-61
2023/04/12 07:57:27;;;;;;;0.75;0.60;;;22.40;44.50;;;;;;5038838;28;20041;-61
2023/04/12 07:59:53;;;;;;;0.80;0.68;;;22.40;44.60;;;;;;5038786;28;20040;-61
2023/04/12 08:02:23;;;;;;;0.60;0.60;;;22.40;44.60;;;;;;5039212;28;20021;-61
2023/04/12 08:04:50;;;;;;;0.80;0.70;;;22.40;44.60;;;;;;5041258;28;20539;-61
2023/04/12 08:07:15;;;;;;;0.70;0.60;;;22.40;44.60;;;;;;5046856;28;20400;-61
2023/04/12 08:09:41;;;;;;;0.50;0.50;;;22.40;44.60;;;;;;5044339;28;20040;-61
2023/04/12 08:12:07;;;;;;;0.95;0.70;;;22.40;44.70;;;;;;5040498;28;20021;-61
2023/04/12 08:14:32;;;;;;;0.65;0.57;;;22.40;44.70;;;;;;5042605;28;20559;-61
2023/04/12 08:16:58;;;;;;;0.95;0.60;;;22.40;44.80;;;;;;5037666;28;20330;-60
2023/04/12 08:19:24;;;;;;;1.00;0.60;;;22.30;44.70;;;;;;5043148;28;20029;-61
2023/04/12 08:21:49;;;;;;;0.70;0.60;;;22.30;44.80;;;;;;5041637;28;20373;-61
2023/04/12 08:24:15;;;;;;;0.85;0.70;;;22.30;44.80;;;;;;5040350;28;20037;-61
2023/04/12 08:26:41;;;;;;;1.00;0.73;;;22.40;44.90;;;;;;5043818;28;20648;-61
2023/04/12 08:29:06;;;;;;;0.65;0.60;;;22.40;44.90;;;;;;5043221;28;20025;-61
2023/04/12 08:31:32;;;;;;;1.10;0.70;;;22.30;44.90;;;;;;5043899;28;20075;-61
2023/04/12 08:33:58;;;;;;;0.63;0.60;;;22.30;45.00;;;;;;5041629;28;20492;-61
2023/04/12 08:36:26;;;;;;;1.05;0.60;;;22.30;45.00;;;;;;5041763;28;20022;-61
2023/04/12 08:38:54;;;;;;;1.65;0.70;;;22.30;45.10;;;;;;5040245;28;20389;-60
2023/04/12 08:41:20;;;;;;;1.08;0.60;;;22.40;45.20;;;;;;5040346;28;20082;-61
2023/04/12 08:43:46;;;;;;;0.68;0.60;;;22.30;45.70;;;;;;5041894;28;20037;-61
2023/04/12 08:46:16;;;;;;;0.93;0.60;;;22.30;45.20;;;;;;5043816;28;20048;-61
2023/04/12 08:48:47;;;;;;;0.90;0.60;;;22.30;45.20;;;;;;5039347;28;20548;-61
2023/04/12 08:51:15;;;;;;;0.90;0.60;;;22.30;45.30;;;;;;5041684;28;20028;-61
2023/04/12 08:53:40;;;;;;;1.00;0.65;;;22.30;45.30;;;;;;5042088;28;20484;-61
2023/04/12 08:56:10;;;;;;;0.60;0.60;;;22.30;45.40;;;;;;5042006;28;20057;-61
2023/04/12 08:58:40;;;;;;;1.55;0.70;;;22.30;45.40;;;;;;5041405;28;20548;-61
2023/04/12 09:01:13;;;;;;;1.15;0.70;;;22.30;45.40;;;;;;5041485;28;20412;-61
2023/04/12 09:03:40;;;;;;;0.90;0.55;;;22.30;45.50;;;;;;5038880;28;20386;-61
2023/04/12 09:06:06;;;;;;;0.73;0.60;;;22.30;45.50;;;;;;5043886;28;20033;-61
2023/04/12 09:08:32;;;;;;;1.40;0.60;;;22.30;45.60;;;;;;5041130;28;20150;-64
2023/04/12 09:10:58;;;;;;;0.73;0.60;;;22.30;45.60;;;;;;5040860;28;20028;-63
2023/04/12 09:13:34;;;;;;;1.00;0.65;;;22.30;45.60;;;;;;5040032;28;20025;-63
2023/04/12 09:16:00;;;;;;;1.52;0.60;;;22.30;45.70;;;;;;5041271;28;20025;-61
2023/04/12 09:18:29;;;;;;;0.93;0.63;;;22.30;45.70;;;;;;5041186;28;20382;-61
2023/04/12 09:21:07;;;;;;;0.73;0.65;;;22.30;45.70;;;;;;5038000;28;20029;-61
2023/04/12 09:23:36;;;;;;;0.80;0.60;;;22.30;45.70;;;;;;5039666;28;20030;-61
2023/04/12 09:26:02;;;;;;;0.60;0.57;;;22.30;45.70;;;;;;5041074;28;20055;-61
2023/04/12 09:28:29;;;;;;;0.90;0.60;;;22.30;45.80;;;;;;5039997;28;20645;-61
2023/04/12 09:30:56;;;;;;;0.98;0.60;;;22.30;45.70;;;;;;5038436;28;20133;-61
2023/04/12 09:33:38;;;;;;;0.93;0.70;;;22.30;45.80;;;;;;5037285;28;20056;-61
2023/04/12 09:36:13;;;;;;;2.15;0.60;;;22.30;45.80;;;;;;5040132;28;20033;-61
2023/04/12 09:38:40;;;;;;;0.80;0.60;;;22.30;45.80;;;;;;5039755;28;20029;-61
2023/04/12 09:41:18;;;;;;;1.02;0.60;;;22.30;45.80;;;;;;5040478;28;20120;-60
2023/04/12 09:43:44;;;;;;;1.23;0.70;;;22.20;45.80;;;;;;5039532;28;20045;-61
2023/04/12 09:46:13;;;;;;;0.85;0.70;;;22.20;45.80;;;;;;5041098;28;20475;-61
2023/04/12 09:48:40;;;;;;;0.70;0.60;;;22.20;45.90;;;;;;5038652;28;20029;-60
2023/04/12 09:51:06;;;;;;;0.82;0.57;;;22.30;45.90;;;;;;5043847;28;20424;-60
2023/04/12 09:53:39;;;;;;;0.98;0.60;;;22.20;46.40;;;;;;5041353;28;20032;-60
2023/04/12 09:56:07;;;;;;;0.60;0.60;;;22.30;46.00;;;;;;5038612;28;20364;-60
2023/04/12 09:58:35;;;;;;;0.75;0.60;;;22.20;45.90;;;;;;5040847;28;20429;-60
2023/04/12 10:01:02;;;;;;;0.65;0.57;;;22.20;45.90;;;;;;5040595;28;20522;-60
2023/04/12 10:03:28;;;;;;;1.52;0.80;;;22.20;46.00;;;;;;5039253;28;20057;-60
2023/04/12 10:05:54;;;;;;;0.70;0.60;;;22.20;46.00;;;;;;5039594;28;20061;-60
2023/04/12 10:08:22;;;;;;;1.00;0.70;;;22.30;46.10;;;;;;5039863;28;20091;-61
2023/04/12 10:10:47;;;;;;;2.13;0.60;;;22.20;46.00;;;;;;5039113;28;20082;-61
2023/04/12 10:13:14;;;;;;;0.77;0.65;;;22.20;46.10;;;;;;5038566;28;20029;-60
2023/04/12 10:15:40;;;;;;;0.82;0.60;;;22.20;46.10;;;;;;5041727;28;20048;-60
2023/04/12 10:18:07;;;;;;;1.48;0.70;;;22.20;46.10;;;;;;5035752;28;20029;-61
2023/04/12 10:20:33;;;;;;;0.80;0.65;;;22.20;46.10;;;;;;5039842;28;20494;-61
2023/04/12 10:22:59;;;;;;;0.75;0.60;;;22.20;46.60;;;;;;5041399;28;20052;-61
2023/04/12 10:25:26;;;;;;;0.60;0.50;;;22.20;46.10;;;;;;5041288;28;20049;-61
2023/04/12 10:27:52;;;;;;;0.60;0.60;;;22.20;46.10;;;;;;5039668;28;20049;-61
2023/04/12 10:30:29;;;;;;;0.88;0.60;;;22.20;46.10;;;;;;5043325;28;20060;-61
2023/04/12 10:33:04;;;;;;;0.65;0.63;;;22.20;46.10;;;;;;5045563;28;20025;-61
2023/04/12 10:35:47;;;;;;;1.40;0.65;;;22.20;46.10;;;;;;5055477;28;20029;-61
2023/04/12 10:38:14;;;;;;;1.13;0.70;;;22.20;46.10;;;;;;5037167;28;20154;-61
2023/04/12 10:41:18;;;;;;;0.90;0.65;;;22.20;46.10;;;;;;5039533;28;20020;-61
2023/04/12 10:43:49;;;;;;;1.08;0.60;;;22.20;46.10;;;;;;5037543;28;20477;-61
2023/04/12 10:46:44;;;;;;;1.58;0.55;;;22.20;46.10;;;;;;5038669;28;20531;-61
2023/04/12 10:49:12;;;;;;;0.77;0.70;;;22.20;46.10;;;;;;5025513;28;20406;-61
2023/04/12 10:51:39;;;;;;;0.80;0.68;;;22.20;46.10;;;;;;5036762;28;20032;-61
2023/04/12 10:54:07;;;;;;;0.60;0.60;;;22.20;46.20;;;;;;5038983;28;20112;-61
2023/04/12 10:56:41;;;;;;;0.88;0.70;;;22.20;46.20;;;;;;5040495;28;20493;-61
2023/04/12 10:59:10;;;;;;;0.70;0.60;;;22.20;46.20;;;;;;5036520;28;20030;-61
2023/04/12 11:01:37;;;;;;;1.15;0.60;;;22.20;46.20;;;;;;5038659;28;20033;-62
2023/04/12 11:04:19;;;;;;;0.65;0.50;;;22.20;46.20;;;;;;5039104;28;20418;-62
2023/04/12 11:06:52;;;;;;;1.25;0.63;;;22.20;46.20;;;;;;5035299;28;20025;-61
2023/04/12 11:09:33;;;;;;;0.75;0.60;;;22.20;46.20;;;;;;5041843;28;20483;-62
2023/04/12 11:12:04;;;;;;;0.63;0.52;;;22.20;46.20;;;;;;5036517;28;20112;-62
2023/04/12 11:14:33;;;;;;;0.95;0.50;;;22.20;46.20;;;;;;5037768;28;20037;-61
2023/04/12 11:17:07;;;;;;;0.70;0.70;;;22.20;46.20;;;;;;5038215;28;20465;-61
2023/04/12 11:19:38;;;;;;;0.50;0.50;;;22.20;46.20;;;;;;5040878;28;20033;-61
2023/04/12 11:22:05;;;;;;;0.70;0.60;;;22.20;46.20;;;;;;5038152;28;20545;-62
2023/04/12 11:24:30;;;;;;;2.03;0.70;;;22.20;46.20;;;;;;5038061;28;20061;-62
2023/04/12 11:26:57;;;;;;;0.80;0.70;;;22.20;46.20;;;;;;5039663;28;20487;-61
2023/04/12 11:29:23;;;;;;;0.82;0.50;;;22.20;46.20;;;;;;5037768;28;20029;-62
2023/04/12 11:31:49;;;;;;;0.50;0.50;;;22.20;46.20;;;;;;5037887;28;20469;-62
2023/04/12 11:34:16;;;;;;;0.80;0.63;;;22.10;46.10;;;;;;5039560;28;20120;-61
2023/04/12 11:36:47;;;;;;;0.80;0.60;;;22.10;46.10;;;;;;5037989;28;20021;-62
2023/04/12 11:39:13;;;;;;;0.98;0.63;;;22.20;46.20;;;;;;5043345;28;20029;-62
2023/04/12 11:41:48;;;;;;;1.17;0.70;;;22.20;46.10;;;;;;5047501;28;20422;-62
2023/04/12 11:44:18;;;;;;;0.43;0.40;;;22.10;46.10;;;;;;5045226;28;20458;-62
2023/04/12 11:46:47;;;;;;;0.80;0.50;;;22.20;46.10;;;;;;5043707;28;20120;-62
2023/04/12 11:49:17;;;;;;;0.60;0.40;;;22.20;46.10;;;;;;5040559;28;20021;-62
2023/04/12 11:51:44;;;;;;;0.40;0.40;;;22.20;46.10;;;;;;5038590;28;20496;-62
2023/04/12 11:54:11;;;;;;;1.15;0.80;;;22.20;46.10;;;;;;5041110;28;20079;-62
2023/04/12 11:56:37;;;;;;;0.85;0.65;;;22.10;46.00;;;;;;5045673;28;20396;-62
2023/04/12 11:59:04;;;;;;;0.90;0.60;;;22.20;46.10;;;;;;5044859;28;20086;-62
2023/04/12 12:01:31;;;;;;;0.90;0.60;;;22.10;46.00;;;;;;5047194;28;20049;-62
2023/04/12 12:03:59;;;;;;;0.70;0.50;;;22.20;46.00;;;;;;5043724;28;20428;-62
2023/04/12 12:06:26;;;;;;;1.08;0.60;;;22.20;46.00;;;;;;5046866;28;20534;-64
2023/04/12 12:08:53;;;;;;;0.90;0.60;;;22.20;46.00;;;;;;5044884;28;20100;-64
2023/04/12 12:11:23;;;;;;;0.85;0.52;;;22.10;45.90;;;;;;5041934;28;20030;-64
2023/04/12 12:13:50;;;;;;;0.77;0.60;;;22.20;46.00;;;;;;5040297;28;20540;-64
2023/04/12 12:16:17;;;;;;;0.70;0.50;;;22.10;45.90;;;;;;5043154;28;20031;-64
2023/04/12 12:18:44;;;;;;;0.85;0.60;;;22.20;46.00;;;;;;5042282;28;20171;-64
2023/04/12 12:21:12;;;;;;;0.65;0.50;;;22.20;46.40;;;;;;5038501;28;20040;-64
2023/04/12 12:23:40;;;;;;;0.82;0.50;;;22.20;46.50;;;;;;5039719;28;20369;-63
2023/04/12 12:26:06;;;;;;;1.53;0.60;;;22.20;46.70;;;;;;5042793;28;20120;-64
2023/04/12 12:28:38;;;;;;;1.42;0.60;;;22.40;46.90;;;;;;5043290;28;20087;-64
2023/04/12 12:31:11;;;;;;;0.70;0.65;;;22.40;47.10;;;;;;5043193;28;20049;-64
2023/04/12 12:33:41;;;;;;;0.70;0.68;;;22.50;47.10;;;;;;5039873;28;20116;-64
2023/04/12 12:36:08;;;;;;;1.73;0.70;;;22.60;46.90;;;;;;5041177;28;20041;-64
2023/04/12 12:38:35;;;;;;;1.50;0.80;;;22.70;46.90;;;;;;5041058;28;20451;-64
2023/04/12 12:41:22;;;;;;;1.40;0.80;;;22.80;46.90;;;;;;5046046;28;20041;-63
2023/04/12 12:43:50;;;;;;;1.00;0.77;;;22.90;46.60;;;;;;5044767;28;20520;-64
2023/04/12 12:46:17;;;;;;;2.45;0.70;;;23.00;46.40;;;;;;5039610;28;20025;-64
2023/04/12 12:48:44;;;;;;;1.10;0.70;;;23.20;46.20;;;;;;5039916;28;20037;-64
2023/04/12 12:51:11;;;;;;;1.42;0.77;;;23.30;46.10;;;;;;5041650;28;20095;-64